Time;durP1;ratioP1;P1;durP2;ratioP2;P2;SDS_P1;SDS_P2;PMS_P1;PMS_P2;Temp;Humidity;BMP_temperature;BMP_pressure;BME280_temperature;BME280_humidity;BME280_pressure;Samples;Min_cycle;Max_cycle;Signal;HPM_P1;HPM_P2
2023/01/05 00:01:43;;;;;;;35.60;22.73;;;;;;;11.63;84.35;100401.47;5053201;28;20539;-70
2023/01/05 00:04:11;;;;;;;28.43;21.77;;;;;;;11.67;84.31;100389.47;5051911;28;20604;-70
2023/01/05 00:06:39;;;;;;;29.77;21.63;;;;;;;11.69;84.48;100392.78;5048053;28;20333;-71
2023/01/05 00:09:06;;;;;;;36.50;23.27;;;;;;;11.69;84.40;100398.09;5031969;28;20202;-72
2023/01/05 00:22:41;;;;;;;28.50;22.63;;;;;;;11.69;84.15;100392.78;5031832;28;20240;-71
2023/01/05 00:25:10;;;;;;;31.03;22.97;;;;;;;11.68;84.03;100399.09;5032128;28;20241;-72
2023/01/05 00:27:37;;;;;;;35.73;23.07;;;;;;;11.64;83.93;100392.47;5032790;28;20191;-72
2023/01/05 00:30:04;;;;;;;30.67;22.67;;;;;;;11.63;84.11;100388.16;5038951;28;20198;-72
2023/01/05 00:32:33;;;;;;;35.33;22.73;;;;;;;11.60;84.23;100387.69;5051932;28;20222;-71
2023/01/05 00:35:00;;;;;;;33.37;24.03;;;;;;;11.56;84.54;100379.22;5051423;28;20663;-71
2023/01/05 00:37:30;;;;;;;36.27;23.40;;;;;;;11.53;84.29;100376.94;5051992;28;20194;-71
2023/01/05 00:39:56;;;;;;;34.17;22.93;;;;;;;11.51;84.90;100376.28;5051867;28;20243;-71
2023/01/05 00:42:23;;;;;;;32.57;23.07;;;;;;;11.48;84.54;100384.63;5051666;28;20234;-71
2023/01/05 00:44:50;;;;;;;27.90;21.53;;;;;;;11.45;84.42;100385.00;5051717;28;20263;-70
2023/01/05 00:47:16;;;;;;;37.07;23.43;;;;;;;11.37;84.56;100390.38;5051808;28;20194;-70
2023/01/05 00:49:45;;;;;;;32.30;22.97;;;;;;;11.31;85.10;100385.75;5051804;28;20259;-71
2023/01/05 00:52:11;;;;;;;37.93;25.67;;;;;;;11.32;85.34;100382.13;5051727;28;20271;-71
2023/01/05 00:54:38;;;;;;;37.07;23.93;;;;;;;11.31;85.41;100371.66;5051854;28;20221;-71
2023/01/05 00:57:06;;;;;;;32.87;22.90;;;;;;;11.30;85.32;100376.13;5051456;28;20199;-70
2023/01/05 00:59:33;;;;;;;37.40;25.03;;;;;;;11.29;85.46;100381.63;5051659;28;20194;-70
2023/01/05 01:01:59;;;;;;;35.63;24.10;;;;;;;11.27;86.13;100376.47;5051440;28;20202;-70
2023/01/05 01:04:26;;;;;;;35.17;24.63;;;;;;;11.23;85.98;100375.19;5051409;28;20206;-70
2023/01/05 01:06:54;;;;;;;38.87;24.03;;;;;;;11.16;86.13;100379.59;5051390;28;20224;-69
2023/01/05 01:09:21;;;;;;;36.63;23.90;;;;;;;11.13;86.49;100373.78;5052018;28;20247;-69
2023/01/05 01:11:48;;;;;;;33.70;23.40;;;;;;;11.14;86.89;100370.94;5051195;28;20757;-69
2023/01/05 01:14:15;;;;;;;37.07;23.80;;;;;;;11.14;86.73;100365.63;5051593;28;20194;-69
2023/01/05 01:16:42;;;;;;;34.07;22.63;;;;;;;11.13;86.32;100366.63;5051870;28;20194;-69
2023/01/05 01:19:13;;;;;;;31.43;22.67;;;;;;;11.10;86.49;100356.34;5051192;28;20247;-69
2023/01/05 01:21:40;;;;;;;35.33;23.77;;;;;;;11.04;86.75;100349.91;5051233;28;20210;-70
2023/01/05 01:24:08;;;;;;;38.30;24.27;;;;;;;11.11;86.68;100347.34;5051577;28;20279;-70
2023/01/05 01:26:35;;;;;;;37.07;23.40;;;;;;;11.13;86.74;100353.34;5054647;28;20202;-70
2023/01/05 01:29:02;;;;;;;34.53;23.87;;;;;;;11.13;86.53;100348.03;5055262;28;20299;-71
2023/01/05 01:31:28;;;;;;;34.20;22.53;;;;;;;11.14;86.59;100344.34;5036272;28;20249;-71
2023/01/05 01:33:55;;;;;;;38.53;23.27;;;;;;;11.16;86.20;100346.84;5034627;28;20284;-71
2023/01/05 01:36:21;;;;;;;31.33;21.60;;;;;;;11.18;86.63;100340.31;5035080;28;20195;-71
2023/01/05 01:38:48;;;;;;;34.43;23.63;;;;;;;11.16;86.37;100334.38;5035201;28;20272;-70
2023/01/05 01:41:16;;;;;;;36.27;23.30;;;;;;;11.20;86.06;100338.34;5034937;28;20198;-71
2023/01/05 01:43:45;;;;;;;33.70;23.03;;;;;;;11.18;85.77;100335.00;5034554;28;20195;-71
2023/01/05 01:46:13;;;;;;;33.23;23.00;;;;;;;11.18;85.72;100323.56;5034502;28;20195;-69
2023/01/05 01:48:42;;;;;;;46.50;23.23;;;;;;;11.17;85.94;100325.38;5034842;28;20257;-70
2023/01/05 01:51:15;;;;;;;33.47;23.07;;;;;;;11.17;85.85;100320.06;5034379;28;20256;-70
2023/01/05 01:53:44;;;;;;;34.80;22.70;;;;;;;11.11;85.76;100318.09;5034462;28;20210;-70
2023/01/05 01:56:14;;;;;;;31.00;23.23;;;;;;;11.00;85.45;100316.69;5034331;28;20216;-70
2023/01/05 01:58:43;;;;;;;38.97;24.57;;;;;;;10.95;86.27;100319.06;5034770;28;20186;-71
2023/01/05 02:01:10;;;;;;;38.37;25.83;;;;;;;10.87;86.59;100310.34;5034226;28;20216;-71
2023/01/05 02:03:38;;;;;;;37.77;25.90;;;;;;;10.77;87.03;100304.44;5034223;28;20559;-71
2023/01/05 02:06:05;;;;;;;43.30;25.10;;;;;;;10.70;87.59;100308.78;5034496;28;20214;-71
2023/01/05 02:08:32;;;;;;;39.53;26.03;;;;;;;10.65;87.49;100305.84;5034203;28;20201;-71
2023/01/05 02:11:13;;;;;;;40.50;27.60;;;;;;;10.60;87.44;100303.75;5034015;28;20674;-71
2023/01/05 02:13:55;;;;;;;40.80;27.53;;;;;;;10.56;88.18;100297.13;5035188;28;20206;-71
2023/01/05 02:16:30;;;;;;;40.63;26.90;;;;;;;10.55;88.46;100297.28;5034340;28;20191;-71
2023/01/05 02:19:16;;;;;;;41.90;28.07;;;;;;;10.39;87.66;100295.56;5035167;28;20189;-71
2023/01/05 02:21:56;;;;;;;42.40;26.00;;;;;;;10.25;88.86;100284.88;5034235;28;20259;-71
2023/01/05 02:24:45;;;;;;;40.83;28.40;;;;;;;10.17;89.38;100285.72;5040544;28;20648;-71
2023/01/05 02:27:32;;;;;;;40.67;27.13;;;;;;;10.13;89.63;100278.31;5054666;28;20189;-71
2023/01/05 02:30:33;;;;;;;38.77;26.70;;;;;;;10.05;89.61;100281.00;5054260;28;20185;-71
2023/01/05 02:33:11;;;;;;;40.17;27.67;;;;;;;9.98;89.10;100283.50;5053248;28;20220;-70
2023/01/05 02:35:44;;;;;;;40.90;26.03;;;;;;;9.92;89.14;100281.50;5054228;28;20181;-70
2023/01/05 02:38:17;;;;;;;35.70;26.33;;;;;;;9.82;89.91;100285.38;5052626;28;20185;-70
2023/01/05 02:40:49;;;;;;;41.37;27.50;;;;;;;9.77;90.18;100277.09;5053374;28;20243;-70
2023/01/05 02:43:19;;;;;;;34.50;25.13;;;;;;;9.78;90.73;100273.44;5054360;28;20246;-69
2023/01/05 02:45:46;;;;;;;39.57;26.20;;;;;;;9.79;90.16;100280.41;5053543;28;20277;-69
2023/01/05 02:48:14;;;;;;;45.17;27.77;;;;;;;9.75;89.67;100279.09;5053651;28;20196;-69
2023/01/05 02:50:46;;;;;;;35.90;26.37;;;;;;;9.77;89.78;100269.16;5053460;28;20261;-69
2023/01/05 02:53:19;;;;;;;41.57;28.03;;;;;;;9.71;89.75;100275.13;5053802;28;20262;-70
2023/01/05 02:55:51;;;;;;;41.67;27.13;;;;;;;9.62;90.08;100278.81;5053021;28;20188;-69
2023/01/05 02:58:23;;;;;;;41.57;26.80;;;;;;;9.63;90.59;100265.38;5053179;28;20181;-69
2023/01/05 03:00:53;;;;;;;41.87;27.10;;;;;;;9.64;90.78;100260.91;5052911;28;20620;-69
2023/01/05 03:03:29;;;;;;;41.10;26.47;;;;;;;9.67;90.85;100265.84;5053340;28;20284;-69
2023/01/05 03:06:01;;;;;;;39.30;26.57;;;;;;;9.68;90.28;100262.22;5053387;28;20184;-69
2023/01/05 03:08:30;;;;;;;41.50;27.93;;;;;;;9.68;90.62;100256.91;5052987;28;20242;-69
2023/01/05 03:13:52;;;;;;;50.60;28.60;;;;;;;9.69;90.57;100258.56;5053197;28;20211;-70
2023/01/05 03:16:24;;;;;;;39.77;26.13;;;;;;;9.69;90.13;100253.25;5053169;28;20185;-69
2023/01/05 03:35:54;;;;;;;47.57;28.83;;;;;;;9.50;91.29;100232.44;5011122;28;20685;-70
2023/01/05 03:38:26;;;;;;;48.40;30.90;;;;;;;9.52;91.08;100230.44;5010770;28;20244;-70
2023/01/05 03:40:57;;;;;;;47.03;30.53;;;;;;;9.53;91.65;100226.78;5041164;28;20190;-70
2023/01/05 03:43:23;;;;;;;40.70;29.80;;;;;;;9.55;92.04;100232.75;5033544;28;20247;-70
2023/01/05 03:45:53;;;;;;;42.80;29.67;;;;;;;9.55;91.82;100233.56;5032243;28;20657;-69
2023/01/05 03:48:21;;;;;;;39.40;29.47;;;;;;;9.56;91.77;100231.75;5042674;28;20192;-69
2023/01/05 03:50:48;;;;;;;43.43;29.83;;;;;;;9.51;92.32;100234.06;5032229;28;20192;-69
2023/01/05 03:53:16;;;;;;;44.73;30.50;;;;;;;9.46;92.43;100231.13;5032660;28;20221;-71
2023/01/05 03:55:43;;;;;;;42.33;29.30;;;;;;;9.43;93.23;100228.78;5032389;28;20197;-69
2023/01/05 03:58:09;;;;;;;40.90;29.53;;;;;;;9.42;93.31;100224.50;5046839;28;20196;-70
2023/01/05 04:00:36;;;;;;;45.47;30.57;;;;;;;9.37;93.79;100213.59;5051568;28;20192;-70
2023/01/05 04:03:03;;;;;;;46.20;29.67;;;;;;;9.40;93.74;100221.22;5051672;28;20196;-71
2023/01/05 04:05:30;;;;;;;51.27;32.00;;;;;;;9.31;94.45;100222.22;5052168;28;20192;-70
2023/01/05 04:07:57;;;;;;;46.37;32.10;;;;;;;9.30;95.02;100225.84;5038298;28;20259;-70
2023/01/05 04:10:25;;;;;;;45.47;30.77;;;;;;;9.28;94.66;100211.97;5032408;28;20193;-71
2023/01/05 04:12:51;;;;;;;43.93;30.33;;;;;;;9.27;95.09;100215.63;5032169;28;20221;-70
2023/01/05 04:15:18;;;;;;;45.80;30.43;;;;;;;9.21;95.27;100217.13;5033045;28;20271;-71
2023/01/05 04:17:45;;;;;;;47.50;30.17;;;;;;;9.21;96.01;100216.28;5043028;28;20189;-71
2023/01/05 04:20:12;;;;;;;42.37;30.97;;;;;;;9.25;96.10;100207.00;5052282;28;20222;-70
2023/01/05 04:22:38;;;;;;;45.03;30.40;;;;;;;9.27;95.87;100200.53;5052067;28;20229;-70
2023/01/05 04:25:06;;;;;;;47.37;30.90;;;;;;;9.30;96.23;100194.88;5043301;28;20216;-70
2023/01/05 04:27:34;;;;;;;45.37;29.37;;;;;;;9.35;95.84;100197.84;5032067;28;20266;-70
2023/01/05 04:30:01;;;;;;;50.07;30.67;;;;;;;9.35;95.24;100194.38;5038556;28;20254;-69
2023/01/05 04:32:27;;;;;;;47.67;30.23;;;;;;;9.24;95.01;100197.41;5051484;28;20695;-69
2023/01/05 04:34:54;;;;;;;47.20;31.23;;;;;;;9.28;96.79;100193.41;5051306;28;20208;-68
2023/01/05 04:37:21;;;;;;;49.63;34.70;;;;;;;9.26;96.03;100198.88;5051972;28;20192;-69
2023/01/05 04:39:47;;;;;;;54.73;34.20;;;;;;;9.27;96.19;100195.22;5052238;28;20193;-69
2023/01/05 04:42:14;;;;;;;54.03;34.10;;;;;;;9.33;96.67;100193.72;5048063;28;20238;-71
2023/01/05 04:44:42;;;;;;;57.10;33.20;;;;;;;9.40;96.67;100192.84;5045925;28;20189;-70
2023/01/05 04:47:09;;;;;;;48.60;30.73;;;;;;;9.43;95.36;100183.72;5051868;28;20193;-69
2023/01/05 04:49:36;;;;;;;49.67;30.73;;;;;;;9.42;95.51;100190.03;5051852;28;20232;-68
2023/01/05 04:52:02;;;;;;;49.47;29.77;;;;;;;9.43;95.02;100189.88;5051415;28;20197;-69
2023/01/05 04:54:29;;;;;;;47.93;32.77;;;;;;;9.45;94.41;100187.88;5035560;28;20217;-69
2023/01/05 04:56:56;;;;;;;48.33;31.33;;;;;;;9.48;94.46;100192.00;5031767;28;20193;-69
2023/01/05 04:59:22;;;;;;;49.37;29.77;;;;;;;9.48;94.16;100182.22;5034141;28;20630;-70
2023/01/05 05:01:51;;;;;;;49.93;31.00;;;;;;;9.46;93.61;100183.38;5054401;28;20273;-70
2023/01/05 05:04:17;;;;;;;49.97;30.77;;;;;;;9.45;92.95;100177.28;5038535;28;20259;-70
2023/01/05 05:06:44;;;;;;;51.30;30.97;;;;;;;9.43;92.75;100173.94;5033846;28;20251;-70
2023/01/05 05:09:10;;;;;;;48.97;30.10;;;;;;;9.41;92.40;100180.44;5034928;28;20193;-70
2023/01/05 05:11:37;;;;;;;51.00;30.50;;;;;;;9.32;92.43;100166.38;5034130;28;20189;-70
2023/01/05 05:14:04;;;;;;;43.63;30.03;;;;;;;9.35;92.44;100176.63;5045255;28;20718;-70
2023/01/05 05:16:31;;;;;;;46.70;31.23;;;;;;;9.31;91.90;100170.03;5054568;28;21067;-70
2023/01/05 05:18:59;;;;;;;48.13;30.30;;;;;;;9.28;92.41;100180.16;5055098;28;20189;-70
2023/01/05 05:21:26;;;;;;;50.67;31.33;;;;;;;9.24;92.75;100176.19;5055271;28;20200;-70
2023/01/05 05:23:52;;;;;;;56.00;32.00;;;;;;;9.17;92.55;100177.84;5045496;28;20283;-69
2023/01/05 05:26:19;;;;;;;51.20;31.63;;;;;;;9.17;91.88;100184.00;5035006;28;20193;-70
2023/01/05 05:28:46;;;;;;;57.30;33.07;;;;;;;9.14;91.38;100175.53;5034720;28;20201;-69
2023/01/05 05:31:12;;;;;;;49.47;32.30;;;;;;;9.09;91.46;100177.88;5051447;28;20188;-69
2023/01/05 05:33:40;;;;;;;55.10;34.20;;;;;;;9.06;92.23;100170.25;5053725;28;20248;-70
2023/01/05 05:36:09;;;;;;;55.90;34.67;;;;;;;9.05;92.99;100165.97;5054484;28;20763;-69
2023/01/05 05:38:35;;;;;;;47.10;32.37;;;;;;;9.00;92.90;100155.06;5054603;28;20189;-69
2023/01/05 05:41:02;;;;;;;60.23;33.17;;;;;;;8.99;92.86;100164.81;5054689;28;20230;-69
2023/01/05 05:43:29;;;;;;;64.93;33.97;;;;;;;8.97;92.62;100161.53;5048847;28;20564;-69
2023/01/05 05:45:55;;;;;;;65.43;34.10;;;;;;;8.95;93.09;100152.09;5034638;28;20565;-68
2023/01/05 05:48:22;;;;;;;53.03;33.00;;;;;;;8.95;93.19;100147.59;5034589;28;20194;-68
2023/01/05 05:50:49;;;;;;;50.33;33.93;;;;;;;8.96;92.89;100154.56;5034901;28;20251;-69
2023/01/05 05:53:17;;;;;;;60.53;35.87;;;;;;;8.95;93.67;100157.41;5034341;28;20213;-68
2023/01/05 05:55:47;;;;;;;61.63;36.73;;;;;;;8.95;92.87;100157.41;5035330;28;20193;-72
2023/01/05 05:58:13;;;;;;;56.57;38.33;;;;;;;8.92;92.82;100152.44;5034624;28;20251;-71
2023/01/05 06:00:40;;;;;;;64.97;37.40;;;;;;;8.91;93.41;100150.78;5043244;28;20668;-71
2023/01/05 06:03:07;;;;;;;58.67;35.63;;;;;;;8.88;93.63;100161.72;5054243;28;20227;-70
2023/01/05 06:05:34;;;;;;;60.90;36.33;;;;;;;8.86;94.69;100163.72;5053973;28;20197;-70
2023/01/05 06:08:01;;;;;;;84.20;43.73;;;;;;;8.86;94.02;100169.00;5054143;28;20192;-70
2023/01/05 06:10:29;;;;;;;76.93;41.87;;;;;;;8.89;94.83;100168.66;5047071;28;20735;-73
2023/01/05 06:12:55;;;;;;;77.50;44.23;;;;;;;8.85;94.08;100162.88;5034234;28;20221;-72
2023/01/05 06:15:22;;;;;;;81.23;46.93;;;;;;;8.90;93.75;100170.31;5034865;28;20193;-71
2023/01/05 06:17:49;;;;;;;101.93;51.67;;;;;;;8.93;93.13;100175.25;5034092;28;20190;-72
2023/01/05 06:20:16;;;;;;;103.43;49.50;;;;;;;8.96;94.12;100169.63;5034922;28;21045;-71
2023/01/05 06:22:44;;;;;;;71.73;44.53;;;;;;;9.03;93.78;100167.97;5036028;28;20270;-71
2023/01/05 06:25:11;;;;;;;71.33;46.30;;;;;;;9.04;93.55;100166.97;5035182;28;20251;-73
2023/01/05 06:27:39;;;;;;;85.40;46.47;;;;;;;9.13;94.49;100166.78;5046910;28;20258;-72
2023/01/05 06:30:07;;;;;;;82.90;44.07;;;;;;;9.24;93.23;100170.88;5044572;28;20188;-70
2023/01/05 06:32:33;;;;;;;72.10;43.47;;;;;;;9.35;93.29;100167.88;5053305;28;20196;-70
2023/01/05 06:35:00;;;;;;;80.97;45.53;;;;;;;9.47;94.06;100171.78;5053265;28;20282;-70
2023/01/05 06:37:27;;;;;;;82.30;46.83;;;;;;;9.60;93.15;100164.91;5044318;28;20255;-70
2023/01/05 06:39:55;;;;;;;66.20;43.73;;;;;;;9.71;92.68;100161.06;5041257;28;20591;-71
2023/01/05 06:42:21;;;;;;;72.77;43.10;;;;;;;9.83;92.19;100164.97;5051152;28;20280;-72
2023/01/05 06:44:49;;;;;;;74.47;45.10;;;;;;;9.84;91.93;100163.97;5042108;28;20262;-69
2023/01/05 06:47:16;;;;;;;72.27;48.07;;;;;;;9.83;92.98;100165.81;5043587;28;20193;-70
2023/01/05 06:49:43;;;;;;;87.57;54.93;;;;;;;9.90;91.54;100165.94;5040899;28;20619;-70
2023/01/05 06:52:09;;;;;;;66.77;43.33;;;;;;;9.93;90.39;100163.72;5033132;28;20572;-70
2023/01/05 06:54:36;;;;;;;71.53;42.90;;;;;;;9.82;90.61;100158.84;5033248;28;20275;-67
2023/01/05 06:57:03;;;;;;;70.00;42.20;;;;;;;9.78;90.76;100151.41;5044859;28;20580;-74
2023/01/05 06:59:29;;;;;;;68.03;42.60;;;;;;;9.76;90.91;100154.22;5052803;28;20192;-69
2023/01/05 07:01:57;;;;;;;82.87;48.30;;;;;;;9.91;92.27;100139.22;5052702;28;20656;-69
2023/01/05 07:04:24;;;;;;;71.60;40.07;;;;;;;10.31;98.37;100140.78;5049664;28;20193;-68
2023/01/05 07:06:51;;;;;;;88.77;54.13;;;;;;;10.48;91.98;100150.25;5041862;28;20189;-72
2023/01/05 07:09:17;;;;;;;78.13;49.40;;;;;;;10.53;89.58;100142.56;5043667;28;20216;-67
2023/01/05 07:11:44;;;;;;;89.20;48.70;;;;;;;10.67;90.42;100144.44;5042873;28;20188;-67
2023/01/05 07:14:11;;;;;;;75.57;43.73;;;;;;;10.93;89.51;100144.84;5045608;28;20764;-68
2023/01/05 07:16:37;;;;;;;75.27;41.50;;;;;;;11.10;87.58;100135.66;5044863;28;20708;-70
2023/01/05 07:19:06;;;;;;;63.97;41.33;;;;;;;11.25;86.71;100133.84;5044277;28;20194;-70
2023/01/05 07:21:33;;;;;;;71.97;43.23;;;;;;;11.45;86.29;100132.25;5045248;28;20222;-70
2023/01/05 07:23:59;;;;;;;54.90;37.37;;;;;;;11.57;84.00;100125.44;5045268;28;20691;-67
2023/01/05 07:26:26;;;;;;;51.03;33.33;;;;;;;11.78;83.25;100124.69;5052147;28;20664;-66
2023/01/05 07:28:53;;;;;;;46.13;31.43;;;;;;;11.94;82.34;100124.44;5052649;28;20202;-66
2023/01/05 07:31:19;;;;;;;55.60;36.27;;;;;;;12.17;80.80;100122.44;5035188;28;20194;-67
2023/01/05 07:33:46;;;;;;;59.27;36.57;;;;;;;12.40;82.18;100115.03;5042255;28;20278;-67
2023/01/05 07:36:14;;;;;;;51.17;33.27;;;;;;;12.73;79.59;100116.94;5052484;28;20194;-68
2023/01/05 07:38:41;;;;;;;44.70;31.83;;;;;;;12.96;79.36;100108.69;5046677;28;20637;-68
2023/01/05 07:41:08;;;;;;;43.17;30.30;;;;;;;13.15;77.81;100116.03;5050700;28;20199;-67
2023/01/05 07:43:35;;;;;;;46.40;30.53;;;;;;;13.34;76.43;100118.78;5050024;28;20200;-68
2023/01/05 07:46:03;;;;;;;55.70;31.20;;;;;;;13.60;76.78;100110.06;5051437;28;20294;-67
2023/01/05 07:48:30;;;;;;;49.63;30.70;;;;;;;13.82;74.95;100108.88;5050310;28;20207;-70
2023/01/05 07:51:01;;;;;;;49.50;29.90;;;;;;;14.01;74.28;100100.09;5050163;28;20192;-66
2023/01/05 07:53:29;;;;;;;46.53;31.47;;;;;;;14.19;72.68;100111.84;5050262;28;20212;-75
2023/01/05 07:55:57;;;;;;;47.13;29.50;;;;;;;14.37;71.03;100113.91;5050209;28;20192;-69
2023/01/05 07:58:24;;;;;;;47.70;28.63;;;;;;;14.57;70.59;100115.56;5050302;28;20672;-68
2023/01/05 08:00:51;;;;;;;60.47;30.20;;;;;;;14.69;69.12;100118.44;5048804;28;20250;-70
2023/01/05 08:03:18;;;;;;;42.47;29.57;;;;;;;14.69;69.31;100105.06;5049143;28;20254;-69
2023/01/05 08:05:44;;;;;;;42.63;29.63;;;;;;;14.88;68.38;100122.94;5048853;28;20196;-74
2023/01/05 08:08:11;;;;;;;46.73;29.87;;;;;;;14.93;69.36;100102.56;5049383;28;20266;-69
2023/01/05 08:10:40;;;;;;;49.47;30.83;;;;;;;15.19;68.19;100109.69;5049214;28;20193;-71
2023/01/05 08:15:53;;;;;;;36.83;26.93;;;;;;;15.40;66.49;100091.53;5049265;28;20191;-71
2023/01/05 08:18:21;;;;;;;45.50;27.20;;;;;;;15.61;64.60;100104.63;5048100;28;20204;-70
2023/01/05 08:20:52;;;;;;;42.30;28.10;;;;;;;15.49;66.38;100092.94;5049969;28;20684;-72
2023/01/05 08:23:19;;;;;;;43.07;30.03;;;;;;;15.48;64.90;100093.97;5049534;28;20228;-71
2023/01/05 08:25:47;;;;;;;37.93;27.83;;;;;;;15.63;65.65;100097.22;5050282;28;20201;-70
2023/01/05 08:28:14;;;;;;;50.90;28.80;;;;;;;15.77;64.02;100097.97;5049985;28;20262;-69
2023/01/05 08:30:41;;;;;;;41.20;27.60;;;;;;;15.63;65.14;100091.03;5049825;28;20193;-69
2023/01/05 08:33:07;;;;;;;42.57;28.40;;;;;;;15.67;64.77;100092.25;5050799;28;20651;-69
2023/01/05 08:35:34;;;;;;;42.13;27.17;;;;;;;15.69;64.04;100088.31;5051854;28;20212;-69
2023/01/05 08:38:01;;;;;;;36.83;26.90;;;;;;;15.39;64.91;100071.16;5052984;28;20225;-69
2023/01/05 08:40:27;;;;;;;41.53;28.30;;;;;;;15.16;65.54;100061.97;5053992;28;20227;-69
2023/01/05 08:42:57;;;;;;;45.00;29.53;;;;;;;15.29;65.79;100054.72;5053701;28;20289;-70
2023/01/05 08:45:23;;;;;;;39.50;28.33;;;;;;;15.52;65.23;100054.22;5054621;28;20201;-69
2023/01/05 08:47:50;;;;;;;41.33;27.10;;;;;;;15.77;65.38;100047.88;5052539;28;20251;-70
2023/01/05 08:50:17;;;;;;;41.70;26.80;;;;;;;16.02;64.70;100041.72;5054432;28;20684;-68
2023/01/05 08:52:44;;;;;;;43.03;27.40;;;;;;;16.21;64.25;100030.03;5053460;28;20188;-69
2023/01/05 08:55:11;;;;;;;38.27;25.97;;;;;;;16.44;61.54;100038.31;5053805;28;20220;-68
2023/01/05 08:57:37;;;;;;;42.20;25.57;;;;;;;16.65;61.65;100033.38;5053817;28;20192;-68
2023/01/05 09:00:07;;;;;;;50.73;26.07;;;;;;;16.92;59.14;100033.91;5051307;28;20193;-67
2023/01/05 09:02:33;;;;;;;39.70;26.13;;;;;;;17.13;59.49;100031.59;5052247;28;20193;-68
2023/01/05 09:05:01;;;;;;;48.77;27.87;;;;;;;17.41;57.70;100028.38;5053990;28;20214;-70
2023/01/05 09:07:27;;;;;;;279.63;42.97;;;;;;;17.41;58.35;100023.84;5054158;28;20208;-72
2023/01/05 09:09:54;;;;;;;47.00;27.43;;;;;;;17.53;57.68;100015.81;5053535;28;20191;-68
2023/01/05 09:12:21;;;;;;;36.23;26.53;;;;;;;17.72;56.95;100014.72;5051779;28;20242;-69
2023/01/05 09:14:47;;;;;;;57.07;28.37;;;;;;;17.85;55.10;100009.94;5053600;28;20220;-68
2023/01/05 09:17:15;;;;;;;68.43;29.20;;;;;;;17.93;56.89;100000.75;5053944;28;20202;-69
2023/01/05 09:19:42;;;;;;;52.90;29.17;;;;;;;17.71;56.22;99986.19;5053379;28;20196;-69
2023/01/05 09:22:09;;;;;;;39.20;24.73;;;;;;;17.52;55.62;99971.19;5053660;28;20648;-69
2023/01/05 09:24:36;;;;;;;25.43;20.77;;;;;;;17.63;55.03;99978.47;5053063;28;20197;-69
2023/01/05 09:27:04;;;;;;;33.27;21.00;;;;;;;17.68;55.76;99974.03;5052870;28;20689;-69
2023/01/05 09:29:31;;;;;;;37.43;21.07;;;;;;;17.75;54.64;99976.63;5052876;28;20610;-69
2023/01/05 09:31:57;;;;;;;374.80;38.37;;;;;;;17.71;55.28;99970.06;5052841;28;20266;-68
2023/01/05 09:34:25;;;;;;;29.93;20.53;;;;;;;17.71;54.93;99964.69;5053411;28;20270;-70
2023/01/05 09:36:52;;;;;;;36.30;21.07;;;;;;;17.80;54.81;99958.75;5052907;28;20185;-71
2023/01/05 09:39:19;;;;;;;41.50;20.30;;;;;;;17.93;53.84;99947.00;5053056;28;20193;-71
2023/01/05 09:41:48;;;;;;;33.30;20.53;;;;;;;17.97;53.10;99945.47;5042130;28;20193;-69
2023/01/05 09:44:30;;;;;;;29.50;17.67;;;;;;;17.78;52.82;99927.78;5050043;28;20197;-70
2023/01/05 09:47:01;;;;;;;39.43;18.37;;;;;;;17.99;53.82;99929.91;5060133;28;20180;-70
2023/01/05 09:49:32;;;;;;;34.43;18.63;;;;;;;18.17;52.64;99927.13;5048065;28;20641;-72
2023/01/05 09:52:01;;;;;;;34.77;17.27;;;;;;;18.38;50.87;99927.34;5045466;28;20255;-70
2023/01/05 09:54:32;;;;;;;22.20;16.47;;;;;;;18.42;50.33;99925.84;5039119;28;20217;-70
2023/01/05 09:56:59;;;;;;;33.03;16.40;;;;;;;18.40;50.36;99911.81;5037768;28;20244;-70
2023/01/05 09:59:29;;;;;;;25.80;16.93;;;;;;;18.24;51.16;99900.91;5039458;28;20616;-69
2023/01/05 10:02:00;;;;;;;21.53;18.00;;;;;;;17.53;53.33;99881.50;5047459;28;20193;-72
2023/01/05 10:04:31;;;;;;;23.27;16.87;;;;;;;17.68;55.24;99863.88;5037218;28;20196;-75
2023/01/05 10:07:02;;;;;;;17.70;11.97;;;;;;;18.03;67.38;99845.88;5048338;28;20581;-72
2023/01/05 10:09:32;;;;;;;25.33;17.10;;;;;;;18.01;54.15;99863.31;5052351;28;20637;-73
2023/01/05 10:14:50;;;;;;;24.10;16.30;;;;;;;17.34;53.76;99842.31;5040011;28;20215;-73
2023/01/05 10:17:20;;;;;;;22.07;13.17;;;;;;;17.33;64.02;99817.34;5050384;28;20584;-73
2023/01/05 10:19:49;;;;;;;17.83;14.87;;;;;;;17.76;57.01;99822.44;5046078;28;20201;-70
2023/01/05 10:22:41;;;;;;;22.27;16.27;;;;;;;17.77;52.54;99830.22;5046315;28;20268;-67
2023/01/05 10:25:17;;;;;;;23.03;17.43;;;;;;;17.80;52.01;99818.22;5048250;28;20203;-68
2023/01/05 10:27:50;;;;;;;24.30;17.43;;;;;;;17.64;52.05;99814.34;5034022;28;20255;-65
2023/01/05 10:30:23;;;;;;;22.13;17.53;;;;;;;17.70;52.20;99812.59;5039122;28;20232;-65
2023/01/05 10:32:58;;;;;;;35.90;19.07;;;;;;;17.62;52.66;99807.56;5044845;28;20614;-66
2023/01/05 10:35:43;;;;;;;26.47;17.83;;;;;;;17.57;52.98;99807.47;5046659;28;20212;-64
2023/01/05 10:38:21;;;;;;;25.00;18.27;;;;;;;17.72;52.47;99799.75;5046063;28;20193;-65
2023/01/05 10:41:04;;;;;;;49.70;17.77;;;;;;;17.85;52.19;99789.56;5052986;28;20226;-63
2023/01/05 10:43:48;;;;;;;22.93;16.90;;;;;;;17.68;51.51;99793.22;5036799;28;20243;-70
2023/01/05 10:46:17;;;;;;;24.80;17.10;;;;;;;17.31;51.73;99771.09;5039625;28;20244;-68
2023/01/05 10:48:44;;;;;;;25.83;18.60;;;;;;;17.46;52.04;99778.72;5033051;28;20203;-68
2023/01/05 10:51:12;;;;;;;35.77;16.93;;;;;;;17.45;52.05;99771.72;5053810;28;20202;-68
2023/01/05 10:53:42;;;;;;;23.37;15.87;;;;;;;17.51;51.71;99768.13;5072564;28;20241;-66
2023/01/05 10:56:14;;;;;;;36.83;17.20;;;;;;;17.41;52.60;99770.53;5073161;28;20215;-67
2023/01/05 10:58:43;;;;;;;19.17;15.83;;;;;;;17.63;52.39;99769.72;5072023;28;20192;-68
2023/01/05 11:01:22;;;;;;;25.63;14.53;;;;;;;17.54;51.69;99765.75;5072992;28;20283;-68
2023/01/05 11:03:53;;;;;;;20.00;13.47;;;;;;;17.65;51.38;99756.06;5073359;28;20197;-66
2023/01/05 11:06:23;;;;;;;18.80;14.43;;;;;;;17.60;52.14;99753.28;5073333;28;20192;-68
2023/01/05 11:08:51;;;;;;;21.93;14.20;;;;;;;17.51;52.00;99738.56;5072803;28;20540;-68
2023/01/05 11:11:23;;;;;;;24.03;13.63;;;;;;;17.59;50.36;99746.25;5072671;28;20242;-66
2023/01/05 11:13:53;;;;;;;31.07;14.00;;;;;;;17.36;50.76;99736.28;5061267;28;20279;-67
2023/01/05 11:16:22;;;;;;;16.23;11.67;;;;;;;17.50;50.50;99731.53;5052634;28;20306;-68
2023/01/05 11:18:52;;;;;;;15.57;11.40;;;;;;;17.43;49.69;99728.97;5052517;28;20192;-68
2023/01/05 11:21:21;;;;;;;49.13;14.73;;;;;;;17.35;50.44;99729.28;5052764;28;20258;-68
2023/01/05 11:23:50;;;;;;;15.10;12.27;;;;;;;17.37;50.31;99726.38;5052717;28;20281;-68
2023/01/05 11:26:29;;;;;;;22.20;11.77;;;;;;;17.33;52.81;99727.91;5051010;28;20188;-66
2023/01/05 11:29:16;;;;;;;14.30;11.23;;;;;;;17.32;50.62;99713.63;5048483;28;20185;-67
2023/01/05 11:31:48;;;;;;;13.63;11.23;;;;;;;17.28;50.79;99711.69;5043599;28;20652;-67
2023/01/05 11:34:33;;;;;;;13.60;12.10;;;;;;;17.06;51.11;99707.94;5052337;28;20184;-67
2023/01/05 11:37:05;;;;;;;26.30;11.93;;;;;;;16.72;52.30;99695.28;5052045;28;20223;-67
2023/01/05 11:39:35;;;;;;;14.30;11.97;;;;;;;16.68;52.27;99694.09;5050180;28;20653;-68
2023/01/05 11:42:14;;;;;;;14.60;12.10;;;;;;;16.55;53.52;99683.56;5050938;28;20196;-68
2023/01/05 11:44:43;;;;;;;13.40;11.17;;;;;;;16.58;53.95;99677.75;5049620;28;20204;-66
2023/01/05 11:47:19;;;;;;;23.87;11.57;;;;;;;16.61;52.62;99671.94;5052050;28;20247;-65
2023/01/05 11:49:46;;;;;;;14.90;11.67;;;;;;;16.40;53.18;99675.94;5052079;28;20221;-67
2023/01/05 11:52:27;;;;;;;13.23;11.83;;;;;;;16.44;53.46;99681.66;5065347;28;20266;-66
2023/01/05 11:54:54;;;;;;;17.70;12.07;;;;;;;16.54;53.10;99682.75;5037997;28;20258;-66
2023/01/05 11:57:22;;;;;;;17.90;12.10;;;;;;;16.57;53.23;99676.13;5037776;28;20630;-65
2023/01/05 11:59:51;;;;;;;14.50;11.40;;;;;;;16.34;53.03;99660.78;5040733;28;20282;-64